Villa Taina, Puerto Rico
Current Conditions -  °F | °C
As of 2:50 PM on Thursday 27 Nov 2014 (Local Time) from TJBQ Reporting Station
Scattered Clouds Scattered Clouds  
Wind Chill: 82°   Ceiling: Unl
Heat Index: 86°   Visibility: 10mi
Dew Point: 70°   Wind: 14mph
Humidity: 66%   Direction: 70°ENE
Pressure: 29.94"   Gusts: 18mph
Location:  18.0265°N, 67.1727°W
Report Text: TJBQ 271850Z 07012G16KT 10SM SCT027 28/21 A2994 RMK RWY08 ATIS F
Loading
Personal Weather Stations






























Interactive Weather Map New forecast layout! Learn more

10-Day Weather Forecast

Advertisements
Track Severe Weather on mobile